Metar Cercanos

 

LEPA - Palma De Mallorc, Spain
Distance from station: ONO 38km
Actualización: Sat, 18-May-2024 12:30pm CEST
Parcialmente nuboso
Parcialmente nuboso
 Viento del OSO
Viento: OSO 13 km/h
Temperatura: 24°C
Rocío: 15°C
Humedad: 57%
Barómetro: 1011 hPa
Clouds: Parcialmente nuboso
Visibility: 10 km
Cloud details: Parcialmente nuboso 610 m
2024/05/18 10:30 LEPA 181030Z 24007KT 180V320 9999 SCT020 24/15 Q1011 NOSIG
LEMH - Mahon/Menorca Is, Spain
Distance from station: ENE 105km
Actualización: Sat, 18-May-2024 12:30pm CEST
Few Clouds
Few Clouds
 Viento del S
Viento: S 13 km/h
Temperatura: 21°C
Rocío: 14°C
Humedad: 64%
Barómetro: 1012 hPa
Clouds: Few Clouds
Visibility: 10 km
Cloud details: Few Clouds 1067 m
2024/05/18 10:30 LEMH 181030Z 19007KT 140V240 9999 FEW035 21/14 Q1012
 
LEIB - Ibiza/Es Codola, Spain
Distance from station: OSO 165km
Actualización: Sat, 18-May-2024 12:30pm CEST
Few Clouds
Few Clouds
 Viento del SO
Viento: SO 11 km/h
Temperatura: 21°C
Rocío: 16°C
Humedad: 73%
Barómetro: 1011 hPa
Clouds: Few Clouds
Visibility: 10 km
Cloud details: Few Clouds 732 m
2024/05/18 10:30 LEIB 181030Z 22006KT 180V250 9999 FEW024 21/16 Q1011 NOSIG
LEBL - Barcelona Airpor, Spain
Distance from station: NNO 225km
Actualización: Sat, 18-May-2024 12:30pm CEST
Few Clouds
Few Clouds
 Viento del ENE
Viento: ENE 20 km/h
Temperatura: 18°C
Rocío: 14°C
Humedad: 78%
Barómetro: 1012 hPa
Clouds: Few Clouds
Visibility: 10 km
Cloud details: Few Clouds 457 m
2024/05/18 10:30 LEBL 181030Z 07011KT 9999 FEW015 18/14 Q1012 NOSIG
 
LEVC - Valencia (civ/Mi, Spain
Distance from station: NO 188km
Actualización: Sat, 18-May-2024 12:30pm CEST
Parcialmente nuboso
Parcialmente nuboso
 Viento del E
Viento: E 20 km/h
Temperatura: 21°C
Rocío: 14°C
Humedad: 64%
Barómetro: 1011 hPa
Clouds: Parcialmente nuboso
Visibility: 10 km
Cloud details: Parcialmente nuboso 914 m
2024/05/18 10:30 LEVC 181030Z 09011KT 060V120 9999 SCT030 21/14 Q1011 NOSIG
LEGE - Gerona/Costa Bra, Spain
Distance from station: N 276km
Actualización: Sat, 18-May-2024 12:30pm CEST
Muy nuboso
Muy nuboso
 Viento del NE
Viento: NE 7 km/h
Temperatura: 17°C
Rocío: 14°C
Humedad: 83%
Barómetro: 1013 hPa
Clouds: Muy nuboso
Visibility: 10 km
Cloud details: Muy nuboso 610 m
2024/05/18 10:30 LEGE 181030Z 04004KT 340V080 9999 BKN020 17/14 Q1013 NOSIG
 
LEAL - Alicante/El Alte, Spain
Distance from station: OSO 344km
Actualización: Sat, 18-May-2024 12:30pm CEST
Despejado
Despejado
 Viento del E
Viento: E 15 km/h
Temperatura: 21°C
Rocío: 15°C
Humedad: 69%
Barómetro: 1011 hPa
Resumen: Despejado
Visibility: greater than 10 km
2024/05/18 10:30 LEAL 181030Z 10008KT 070V150 CAVOK 21/15 Q1011 NOSIG
LEAM - Almeria Airport, Spain
Distance from station: SSO 56km
Actualización: Sat, 18-May-2024 12:30pm CEST
Few Clouds
Few Clouds
 Viento del SSO
Viento: SSO 15 km/h
Temperatura: 20°C
Rocío: 15°C
Humedad: 73%
Barómetro: 1011 hPa
Clouds: Few Clouds
Visibility: 10 km
Cloud details: Few Clouds 610 m
2024/05/18 10:30 LEAM 181030Z 20008KT 170V230 9999 FEW020 20/15 Q1011
 
LEZG - Zaragoza (mil/Ci, Spain
Distance from station: NO 431km
Actualización: Sat, 18-May-2024 12:30pm CEST
Despejado
Despejado
 Viento del ONO
Viento: ONO 7 km/h
Temperatura: 19°C
Rocío: 8°C
Humedad: 49%
Barómetro: 1012 hPa
Resumen: Despejado
Visibility: greater than 10 km
2024/05/18 10:30 LEZG 181030Z 29004KT CAVOK 19/08 Q1012 NOSIG
LEMD - Madrid/Barajas, Spain
Distance from station: ONO 234km
Actualización: Sat, 18-May-2024 12:30pm CEST
Parcialmente nuboso
Parcialmente nuboso
 Viento del O
Viento: O 6 km/h
Temperatura: 18°C
Rocío: 5°C
Humedad: 43%
Barómetro: 1013 hPa
Clouds: Parcialmente nuboso
Visibility: 10 km
Cloud details: Parcialmente nuboso 1585 m
2024/05/18 10:30 LEMD 181030Z 26003KT 9999 SCT052 18/05 Q1013 NOSIG
 
LEGR - Granada Airport, Spain
Distance from station: OSO 62km
Actualización: Sat, 18-May-2024 12:30pm CEST
Few Clouds
Few Clouds
 Viento del varies
Viento: varies 4 km/h
Temperatura: 21°C
Rocío: 7°C
Humedad: 40%
Barómetro: 1013 hPa
Clouds: Few Clouds
Visibility: 10 km
Cloud details: Few Clouds 1524 m
2024/05/18 10:30 LEGR 181030Z VRB02KT 9999 FEW050 21/07 Q1013
LEMG - Malaga (civ/Mil), Spain
Distance from station: OSO 227km
Actualización: Sat, 18-May-2024 12:30pm CEST
Despejado
Despejado
 Viento del O
Viento: O 24 km/h
Temperatura: 25°C
Rocío: 6°C
Humedad: 30%
Barómetro: 1011 hPa
Resumen: Despejado
Visibility: greater than 10 km
2024/05/18 10:30 LEMG 181030Z 28013KT 230V310 CAVOK 25/06 Q1011 NOSIG
 
LEZL - Sevilla (civ/Mil, Spain
Distance from station: S 318km
Actualización: Sat, 18-May-2024 12:30pm CEST
Despejado
Despejado
 Viento del O
Viento: O 9 km/h
Temperatura: 21°C
Rocío: 7°C
Humedad: 40%
Barómetro: 1013 hPa
Resumen: Despejado
Visibility: greater than 10 km
2024/05/18 10:30 LEZL 181030Z 26005KT 210V320 CAVOK 21/07 Q1013 NOSIG
LEVT - Vitoria, Spain
Distance from station: NO 226km
Actualización: Sat, 18-May-2024 12:30pm CEST
Muy nuboso
Muy nuboso
 Viento del NNE
Viento: NNE 4 km/h
Temperatura: 14°C
Rocío: 11°C
Humedad: 82%
Barómetro: 1013 hPa
Clouds: Muy nuboso
Visibility: 10 km
Cloud details: Few Clouds 610 m
Muy nuboso 2134 m
2024/05/18 10:30 LEVT 181030Z 03002KT 9999 FEW020 BKN070 14/11 Q1013
 
LEBB - Bilbao/Sondica, Spain
Distance from station: NNO 235km
Actualización: Sat, 18-May-2024 12:30pm CEST
Parcialmente nuboso
Parcialmente nuboso
 Viento del ENE
Viento: ENE 6 km/h
Temperatura: 19°C
Rocío: 10°C
Humedad: 56%
Barómetro: 1013 hPa
Clouds: Parcialmente nuboso
Visibility: 10 km
Cloud details: Parcialmente nuboso 914 m
Parcialmente nuboso 1707 m
2024/05/18 10:30 LEBB 181030Z 06003KT 350V150 9999 SCT030 SCT056 19/10 Q1013 NOSIG
LESO - San Sebastian/Fu, Spain
Distance from station: N 231km
Actualización: Sat, 18-May-2024 12:30pm CEST
Parcialmente nuboso
Parcialmente nuboso
 Viento del NNE
Viento: NNE 9 km/h
Temperatura: 17°C
Rocío: 10°C
Humedad: 64%
Barómetro: 1013 hPa
Clouds: Parcialmente nuboso
Visibility: 10 km
Cloud details: Few Clouds 762 m
Parcialmente nuboso 1128 m
2024/05/18 10:30 LESO 181030Z 02005KT 320V050 9999 FEW025 SCT037 17/10 Q1013
 
LEVD - Valladolid(Mil/C, Spain
Distance from station: ONO 239km
Actualización: Sat, 18-May-2024 12:30pm CEST
Muy nuboso
Muy nuboso
 Viento del SO
Viento: SO 13 km/h
Temperatura: 13°C
Rocío: 6°C
Humedad: 63%
Barómetro: 1013 hPa
Clouds: Muy nuboso
Visibility: 10 km
Cloud details: Muy nuboso 762 m
2024/05/18 10:30 LEVD 181030Z 23007KT 180V260 9999 BKN025 13/06 Q1013 NOSIG
LESA - Salamanca (civ/M, Spain
Distance from station: ONO 349km
Actualización: Sat, 18-May-2024 12:30pm CEST
Parcialmente nuboso
Parcialmente nuboso
 Viento del ONO
Viento: ONO 9 km/h
Temperatura: 14°C
Rocío: 7°C
Humedad: 63%
Barómetro: 1014 hPa
Clouds: Parcialmente nuboso
Visibility: 10 km
Cloud details: Parcialmente nuboso 732 m
2024/05/18 10:30 LESA 181030Z 29005KT 210V010 9999 SCT024 14/07 Q1014
 
LEXJ - Santander/Paraya, Spain
Distance from station: NNO 247km
Actualización: Sat, 18-May-2024 12:30pm CEST
Few Clouds
Few Clouds
 Viento del ENE
Viento: ENE 11 km/h
Temperatura: 16°C
Rocío: 10°C
Humedad: 68%
Barómetro: 1013 hPa
Clouds: Few Clouds
Visibility: 10 km
Cloud details: Few Clouds 1372 m
2024/05/18 10:30 LEXJ 181030Z 06006KT 350V120 9999 FEW045 16/10 Q1013
LEAS - Asturias/Aviles, Spain
Distance from station: NO 214km
Actualización: Sat, 18-May-2024 12:42pm CEST
Lluvia, Muy nuboso
Lluvia, Muy nuboso
 Viento del NNE
Viento: NNE 6 km/h
Temperatura: 13°C
Rocío: 12°C
Humedad: 94%
Barómetro: 1013 hPa
Resumen: Lluvia
Clouds: Muy nuboso
Visibility: 8 km
Cloud details: Parcialmente nuboso 305 m
Parcialmente nuboso 975 m
Muy nuboso 1524 m
2024/05/18 10:42 LEAS 181042Z 02003KT 340V060 8000 RA SCT010 SCT032 BKN050 13/12 Q1013 TEMPO 3000
 
LECO - La Coruna/Alvedr, Spain
Distance from station: ONO 222km
Actualización: Sat, 18-May-2024 12:30pm CEST
Parcialmente nuboso
Parcialmente nuboso
 Viento del NNO
Viento: NNO 22 km/h
Temperatura: 14°C
Rocío: 12°C
Humedad: 88%
Barómetro: 1012 hPa
Clouds: Parcialmente nuboso
Visibility: 10 km
Cloud details: Few Clouds 274 m
Parcialmente nuboso 457 m
2024/05/18 10:30 LECO 181030Z 34012KT 270V040 9999 FEW009 SCT015 14/12 Q1012 TEMPO 3000 RA
LEVX - Vigo/Peinador, Spain
Distance from station: O 214km
Actualización: Sat, 18-May-2024 12:30pm CEST
Lluvia débil, Patches of, Niebla, Muy nuboso
Lluvia débil, Patches of, Niebla, Muy nuboso
 Viento del O
Viento: O 15 km/h
Temperatura: 12°C
Rocío: 11°C
Humedad: 94%
Barómetro: 1013 hPa
Resumen: Lluvia débil, Patches of, Niebla
Clouds: Muy nuboso
Visibility: 3 km
Cloud details: Few Clouds 91 m
Parcialmente nuboso 122 m
Muy nuboso 183 m
2024/05/18 10:30 LEVX 181030Z 26008KT 220V300 3000 0800SE -RA BCFG FEW003 SCT004 BKN006 12/11 Q1013 RERA TEMPO RA